createdAt,value
2022-10-28T00:00:49.276Z,97000.28
2022-10-28T00:03:15.890Z,97008.84
2022-10-28T00:05:42.307Z,97001.81
2022-10-28T00:08:09.090Z,96998.34
2022-10-28T00:10:36.066Z,97002.69
2022-10-28T00:13:02.655Z,96992.13
2022-10-28T00:15:29.260Z,96985.19
2022-10-28T00:17:56.372Z,96995.81
2022-10-28T00:20:22.904Z,97002.09
2022-10-28T00:22:49.273Z,97001.72
2022-10-28T00:25:16.227Z,96999.69
2022-10-28T00:27:43.969Z,96988.41
2022-10-28T00:30:11.299Z,96988.94
2022-10-28T00:32:37.664Z,96989.31
2022-10-28T00:35:04.355Z,96991.66
2022-10-28T00:37:31.215Z,96986.56
2022-10-28T00:39:57.615Z,96984.31
2022-10-28T00:42:23.990Z,96990.94
2022-10-28T00:44:56.798Z,96990.44
2022-10-28T00:48:02.423Z,96995.41
2022-10-28T00:50:47.064Z,96998.75
2022-10-28T00:53:23.603Z,96998.25
2022-10-28T00:55:51.435Z,96991.78
2022-10-28T00:58:21.127Z,96995.59
2022-10-28T01:00:47.483Z,96997.22
2022-10-28T01:03:15.530Z,96992.56
2022-10-28T01:05:44.235Z,96998.19
2022-10-28T01:08:11.100Z,96987.94
2022-10-28T01:11:01.419Z,96985.59
2022-10-28T01:13:46.668Z,96987.72
2022-10-28T01:16:31.421Z,96986.56
2022-10-28T01:19:08.767Z,96980.84
2022-10-28T01:22:06.929Z,96979.16
2022-10-28T01:24:52.286Z,96986.44
2022-10-28T01:27:30.687Z,96975.19
2022-10-28T01:30:11.724Z,96977.66
2022-10-28T01:32:50.330Z,96972.19
2022-10-28T01:35:34.024Z,96970.63
2022-10-28T01:38:16.363Z,96977.75
2022-10-28T01:40:58.162Z,96973.53
2022-10-28T01:43:39.068Z,96980.28
2022-10-28T01:46:13.075Z,96972.31
2022-10-28T01:48:50.960Z,96976.31
2022-10-28T01:51:26.254Z,96968.09
2022-10-28T01:53:55.248Z,96974.38
2022-10-28T01:56:28.384Z,96968.66
2022-10-28T01:58:58.961Z,96963.72
2022-10-28T02:01:27.385Z,96973.09
2022-10-28T02:03:55.581Z,96962.88
2022-10-28T02:06:25.365Z,96958.59
2022-10-28T02:08:54.773Z,96966.22
2022-10-28T02:11:37.005Z,96960.28
2022-10-28T02:14:30.759Z,96957.78
2022-10-28T02:17:12.663Z,96950.38
2022-10-28T02:19:48.860Z,96952.75
2022-10-28T02:22:24.979Z,96953.78
2022-10-28T02:25:13.919Z,96957.06
2022-10-28T02:27:48.638Z,96962.09
2022-10-28T02:30:22.935Z,96969.88
2022-10-28T02:32:57.121Z,96963.88
2022-10-28T02:35:39.306Z,96956.28
2022-10-28T02:38:19.052Z,96953.69
2022-10-28T02:43:26.583Z,96961.13
2022-10-28T02:45:57.703Z,96964.72
2022-10-28T02:48:34.726Z,96972.34
2022-10-28T02:51:08.979Z,96969.03
2022-10-28T02:53:56.578Z,96968.53
2022-10-28T02:56:23.143Z,96969.69
2022-10-28T02:58:50.058Z,96956.34
2022-10-28T03:01:17.088Z,96957.16
2022-10-28T03:03:43.865Z,96953.69
2022-10-28T03:06:10.270Z,96956.81
2022-10-28T03:08:37.308Z,96956.16
2022-10-28T03:11:03.662Z,96949.91
2022-10-28T03:13:30.030Z,96948.25
2022-10-28T03:15:56.692Z,96954.19
2022-10-28T03:18:23.083Z,96957.50
2022-10-28T03:20:49.435Z,96952.22
2022-10-28T03:23:16.189Z,96953.22
2022-10-28T03:25:42.907Z,96955.16
2022-10-28T03:28:09.268Z,96953.03
2022-10-28T03:30:35.748Z,96950.75
2022-10-28T03:33:02.611Z,96949.91
2022-10-28T03:35:28.958Z,96951.22
2022-10-28T03:37:55.312Z,96943.31
2022-10-28T03:40:22.385Z,96939.69
2022-10-28T03:42:48.745Z,96933.44
2022-10-28T03:45:15.197Z,96940.53
2022-10-28T03:47:42.011Z,96941.69
2022-10-28T03:50:10.071Z,96946.59
2022-10-28T03:52:36.536Z,96949.22
2022-10-28T03:55:03.161Z,96945.63
2022-10-28T03:57:33.928Z,96947.94
2022-10-28T04:00:00.378Z,96943.44
2022-10-28T04:02:26.995Z,96945.44
2022-10-28T04:04:54.046Z,96949.75
2022-10-28T04:07:20.483Z,96939.34
2022-10-28T04:09:49.769Z,96946.59
2022-10-28T04:12:16.511Z,96949.41
2022-10-28T04:14:42.942Z,96943.81
2022-10-28T04:17:09.357Z,96933.91
2022-10-28T04:19:36.330Z,96940.03
2022-10-28T04:22:02.889Z,96948.25
2022-10-28T04:24:29.243Z,96949.56
2022-10-28T04:26:56.002Z,96954.84
2022-10-28T04:29:22.368Z,96947.72
2022-10-28T04:31:51.425Z,96945.69
2022-10-28T04:34:19.312Z,96946.84
2022-10-28T04:36:45.684Z,96945.66
2022-10-28T04:39:12.026Z,96944.00
2022-10-28T04:41:38.911Z,96946.28
2022-10-28T04:44:05.327Z,96941.38
2022-10-28T04:46:31.699Z,96940.22
2022-10-28T04:48:58.676Z,96937.94
2022-10-28T04:51:25.059Z,96933.16
2022-10-28T04:53:51.445Z,96933.28
2022-10-28T04:56:18.348Z,96936.91
2022-10-28T04:58:44.743Z,96944.66
2022-10-28T05:01:11.253Z,96945.66
2022-10-28T05:03:38.325Z,96955.44
2022-10-28T05:06:04.911Z,96950.22
2022-10-28T05:08:31.865Z,96949.09
2022-10-28T05:10:58.241Z,96944.28
2022-10-28T05:13:24.691Z,96938.84
2022-10-28T05:15:51.843Z,96950.38
2022-10-28T05:18:18.712Z,96946.28
2022-10-28T05:20:45.131Z,96954.19
2022-10-28T05:23:11.541Z,96956.69
2022-10-28T05:25:38.511Z,96958.81
2022-10-28T05:28:05.047Z,96952.88
2022-10-28T05:30:32.039Z,96962.59
2022-10-28T05:33:01.004Z,96963.28
2022-10-28T05:35:28.464Z,96959.28
2022-10-28T05:37:55.683Z,96955.66
2022-10-28T05:40:22.474Z,96958.16
2022-10-28T05:42:48.891Z,96954.19
2022-10-28T05:45:15.489Z,96953.53
2022-10-28T05:47:44.106Z,96952.19
2022-10-28T05:50:12.294Z,96950.16
2022-10-28T05:52:38.809Z,96949.47
2022-10-28T05:55:06.381Z,96951.78
2022-10-28T05:57:36.339Z,96950.09
2022-10-28T06:00:04.219Z,96953.84
2022-10-28T06:02:30.927Z,96955.84
2022-10-28T06:04:57.304Z,96934.84
2022-10-28T06:07:24.522Z,96945.69
2022-10-28T06:09:51.599Z,96953.25
2022-10-28T06:12:16.440Z,96948.88
2022-10-28T06:14:42.799Z,96944.63
2022-10-28T06:17:10.192Z,96951.59
2022-10-28T06:19:36.562Z,96958.47
2022-10-28T06:22:03.926Z,96959.88
2022-10-28T06:24:30.690Z,96959.97
2022-10-28T06:26:57.101Z,96967.16
2022-10-28T06:29:23.524Z,96968.84
2022-10-28T06:31:50.288Z,96969.84
2022-10-28T06:34:16.642Z,96968.47
2022-10-28T06:36:43.008Z,96975.63
2022-10-28T06:39:09.960Z,96965.13
2022-10-28T06:41:36.311Z,96969.25
2022-10-28T06:44:03.259Z,96969.81
2022-10-28T06:46:30.417Z,96975.91
2022-10-28T06:48:58.377Z,96992.66
2022-10-28T06:51:24.806Z,96986.50
2022-10-28T06:53:52.825Z,96984.41
2022-10-28T06:56:19.243Z,96986.00
2022-10-28T06:58:50.709Z,96979.06
2022-10-28T07:01:17.968Z,96979.34
2022-10-28T07:03:44.998Z,96992.31
2022-10-28T07:06:11.481Z,96985.81
2022-10-28T07:08:38.609Z,96979.25
2022-10-28T07:11:05.394Z,96999.69
2022-10-28T07:13:31.763Z,97001.88
2022-10-28T07:16:00.414Z,96995.16
2022-10-28T07:18:29.397Z,97002.66
2022-10-28T07:21:00.803Z,97007.88
2022-10-28T07:23:28.045Z,96991.63
2022-10-28T07:25:55.880Z,97001.03
2022-10-28T07:28:24.025Z,97001.59
2022-10-28T07:30:50.427Z,97001.66
2022-10-28T07:33:17.295Z,97001.34
2022-10-28T07:35:44.737Z,96998.41
2022-10-28T07:38:11.461Z,97002.53
2022-10-28T07:40:38.159Z,97004.81
2022-10-28T07:43:05.165Z,97006.38
2022-10-28T07:45:31.535Z,97012.25
2022-10-28T07:47:58.321Z,97017.88
2022-10-28T07:50:24.705Z,97012.88
2022-10-28T07:52:51.396Z,97007.06
2022-10-28T07:55:18.442Z,97013.53
2022-10-28T07:57:45.206Z,97004.38
2022-10-28T08:00:11.862Z,96995.84
2022-10-28T08:02:38.424Z,96991.44
2022-10-28T08:05:05.346Z,96994.19
2022-10-28T08:07:34.792Z,97003.31
2022-10-28T08:10:05.122Z,97007.09
2022-10-28T08:12:31.494Z,97017.00
2022-10-28T08:14:57.868Z,97028.16
2022-10-28T08:17:24.680Z,97006.34
2022-10-28T08:19:51.094Z,97017.00
2022-10-28T08:22:18.381Z,97010.19
2022-10-28T08:24:44.753Z,96997.72
2022-10-28T08:27:11.335Z,97000.97
2022-10-28T08:29:37.952Z,96998.94
2022-10-28T08:32:04.424Z,96994.84
2022-10-28T08:34:31.252Z,96990.22
2022-10-28T08:36:58.236Z,97010.25
2022-10-28T08:39:24.670Z,97002.91
2022-10-28T08:42:09.282Z,96986.00
2022-10-28T08:45:10.861Z,96989.25
2022-10-28T08:48:13.575Z,96990.31
2022-10-28T08:50:50.333Z,96987.41
2022-10-28T08:53:21.484Z,96991.72
2022-10-28T08:55:50.034Z,96989.50
2022-10-28T08:58:27.051Z,96978.84
2022-10-28T09:00:55.829Z,96983.44
2022-10-28T09:03:29.772Z,96979.38
2022-10-28T09:06:05.517Z,96984.53
2022-10-28T09:08:37.082Z,96993.13
2022-10-28T09:11:15.591Z,96988.81
2022-10-28T09:14:06.786Z,96993.13
2022-10-28T09:16:54.852Z,96996.00
2022-10-28T09:19:27.188Z,96993.72
2022-10-28T09:22:21.372Z,96987.59
2022-10-28T09:25:00.943Z,96980.16
2022-10-28T09:28:05.321Z,96988.16
2022-10-28T09:30:50.491Z,96991.63
2022-10-28T09:33:26.867Z,97001.91
2022-10-28T09:35:54.185Z,96991.59
2022-10-28T09:38:32.718Z,96992.47
2022-10-28T09:41:06.436Z,96992.44
2022-10-28T09:43:43.057Z,97000.25
2022-10-28T09:46:15.366Z,96995.31
2022-10-28T09:48:46.101Z,96991.56
2022-10-28T09:51:43.187Z,96999.72
2022-10-28T09:54:11.716Z,96995.41
2022-10-28T09:56:38.493Z,97000.56
2022-10-28T09:59:05.809Z,96997.66
2022-10-28T10:01:35.953Z,96992.41
2022-10-28T10:04:11.156Z,97000.06
2022-10-28T10:06:43.122Z,97002.56
2022-10-28T10:09:20.091Z,96998.34
2022-10-28T10:11:49.261Z,97000.69
2022-10-28T10:14:20.153Z,97000.41
2022-10-28T10:16:52.534Z,97005.72
2022-10-28T10:19:18.866Z,97002.06
2022-10-28T10:21:47.953Z,97007.16
2022-10-28T10:24:33.625Z,97009.72
2022-10-28T10:27:17.362Z,97014.16
2022-10-28T10:29:46.240Z,97006.28
2022-10-28T10:32:27.853Z,97003.88
2022-10-28T10:35:13.123Z,97004.88
2022-10-28T10:37:44.377Z,97003.06
2022-10-28T10:40:26.522Z,97003.06
2022-10-28T10:43:12.716Z,97006.84
2022-10-28T10:45:40.550Z,96995.72
2022-10-28T10:48:14.071Z,96994.72
2022-10-28T10:50:43.684Z,96989.97
2022-10-28T10:53:25.816Z,96997.25
2022-10-28T10:55:55.673Z,96992.06
2022-10-28T10:58:27.118Z,96991.78
2022-10-28T11:00:56.291Z,96989.56
2022-10-28T11:03:30.161Z,96989.38
2022-10-28T11:06:22.600Z,96987.13
2022-10-28T11:08:45.494Z,96978.69
2022-10-28T11:11:20.599Z,96972.47
2022-10-28T11:13:49.044Z,96961.69
2022-10-28T11:16:23.926Z,96953.19
2022-10-28T11:18:53.082Z,96956.16
2022-10-28T11:21:44.427Z,96956.94
2022-10-28T11:24:42.825Z,96951.22
2022-10-28T11:27:21.159Z,96968.09
2022-10-28T11:29:48.515Z,96961.97
2022-10-28T11:32:41.122Z,96952.56
2022-10-28T11:35:28.627Z,96948.47
2022-10-28T11:38:03.871Z,96942.34
2022-10-28T11:40:33.149Z,96933.03
2022-10-28T11:43:18.230Z,96941.41
2022-10-28T11:45:53.401Z,96935.91
2022-10-28T11:48:39.413Z,96935.75
2022-10-28T11:51:28.663Z,96928.75
2022-10-28T11:54:07.984Z,96921.31
2022-10-28T11:56:43.474Z,96924.72
2022-10-28T11:59:34.818Z,96927.53
2022-10-28T12:02:26.867Z,96923.44
2022-10-28T12:05:22.854Z,96919.22
2022-10-28T12:08:19.095Z,96915.28
2022-10-28T12:11:29.192Z,96908.63
2022-10-28T12:14:38.602Z,96899.91
2022-10-28T12:17:27.460Z,96905.25
2022-10-28T12:20:08.114Z,96910.91
2022-10-28T12:22:46.667Z,96910.41
2022-10-28T12:25:18.045Z,96899.72
2022-10-28T12:27:48.125Z,96897.56
2022-10-28T12:30:21.154Z,96886.69
2022-10-28T12:32:53.222Z,96886.84
2022-10-28T12:35:33.006Z,96898.75
2022-10-28T12:38:25.912Z,96905.78
2022-10-28T12:41:06.427Z,96897.94
2022-10-28T12:43:39.003Z,96899.91
2022-10-28T12:46:09.888Z,96905.59
2022-10-28T12:48:47.059Z,96920.28
2022-10-28T12:51:23.727Z,96930.91
2022-10-28T12:54:00.591Z,96922.00
2022-10-28T12:56:37.522Z,96931.38
2022-10-28T12:59:13.548Z,96918.66
2022-10-28T13:01:40.883Z,96908.72
2022-10-28T13:04:12.364Z,96909.59
2022-10-28T13:07:16.918Z,96905.84
2022-10-28T13:10:15.819Z,96902.44
2022-10-28T13:13:07.972Z,96885.00
2022-10-28T13:15:48.974Z,96888.31
2022-10-28T13:18:30.909Z,96890.66
2022-10-28T13:21:19.098Z,96878.38
2022-10-28T13:23:59.990Z,96872.09
2022-10-28T13:26:37.735Z,96875.06
2022-10-28T13:29:18.437Z,96868.59
2022-10-28T13:31:46.596Z,96872.78
2022-10-28T13:34:15.879Z,96864.31
2022-10-28T13:36:45.959Z,96861.50
2022-10-28T13:39:33.423Z,96866.69
2022-10-28T13:42:16.460Z,96852.13
2022-10-28T13:44:56.129Z,96848.16
2022-10-28T13:47:26.690Z,96854.38
2022-10-28T13:50:08.468Z,96855.69
2022-10-28T13:52:46.744Z,96851.88
2022-10-28T13:55:16.118Z,96840.38
2022-10-28T13:57:46.390Z,96838.72
2022-10-28T14:00:19.637Z,96823.91
2022-10-28T14:02:49.104Z,96832.53
2022-10-28T14:05:21.458Z,96833.84
2022-10-28T14:08:00.059Z,96837.38
2022-10-28T14:10:32.988Z,96843.16
2022-10-28T14:13:03.254Z,96842.34
2022-10-28T14:15:34.399Z,96845.09
2022-10-28T14:18:15.871Z,96842.06
2022-10-28T14:20:49.646Z,96858.00
2022-10-28T14:23:22.294Z,96867.34
2022-10-28T14:25:52.263Z,96869.78
2022-10-28T14:28:27.996Z,96864.44
2022-10-28T14:31:21.316Z,96866.09
2022-10-28T14:33:53.921Z,96863.00
2022-10-28T14:36:20.192Z,96862.09
2022-10-28T14:38:58.005Z,96865.72
2022-10-28T14:41:35.423Z,96870.16
2022-10-28T14:44:08.254Z,96855.81
2022-10-28T14:46:44.326Z,96860.56
2022-10-28T14:49:32.114Z,96859.34
2022-10-28T14:52:08.802Z,96860.34
2022-10-28T14:54:46.999Z,96862.41
2022-10-28T14:57:14.131Z,96867.06
2022-10-28T14:59:43.594Z,96865.19
2022-10-28T15:02:21.110Z,96868.31
2022-10-28T15:04:57.465Z,96863.50
2022-10-28T15:07:24.566Z,96850.53
2022-10-28T15:09:53.357Z,96859.09
2022-10-28T15:12:23.105Z,96857.16
2022-10-28T15:14:52.176Z,96861.66
2022-10-28T15:17:21.101Z,96868.47
2022-10-28T15:19:51.116Z,96864.44
2022-10-28T15:22:25.178Z,96870.41
2022-10-28T15:24:56.421Z,96870.91
2022-10-28T15:27:24.405Z,96857.00
2022-10-28T15:29:51.048Z,96863.56
2022-10-28T15:32:20.382Z,96862.88
2022-10-28T15:34:47.917Z,96853.06
2022-10-28T15:37:22.047Z,96851.31
2022-10-28T15:40:06.389Z,96853.06
2022-10-28T15:42:43.684Z,96850.94
2022-10-28T15:45:19.496Z,96859.25
2022-10-28T15:47:47.222Z,96857.03
2022-10-28T15:50:16.312Z,96856.09
2022-10-28T15:52:48.193Z,96861.91
2022-10-28T15:55:35.879Z,96851.66
2022-10-28T15:58:18.063Z,96857.81
2022-10-28T16:00:57.078Z,96858.22
2022-10-28T16:03:43.217Z,96861.25
2022-10-28T16:06:22.485Z,96860.97
2022-10-28T16:08:59.957Z,96865.34
2022-10-28T16:11:27.045Z,96869.94
2022-10-28T16:13:53.443Z,96874.16
2022-10-28T16:16:27.112Z,96872.38
2022-10-28T16:19:10.377Z,96878.50
2022-10-28T16:21:38.639Z,96877.84
2022-10-28T16:24:05.206Z,96872.09
2022-10-28T16:26:33.228Z,96880.72
2022-10-28T16:28:59.564Z,96878.50
2022-10-28T16:31:29.122Z,96876.25
2022-10-28T16:33:55.707Z,96875.66
2022-10-28T16:36:22.031Z,96879.09
2022-10-28T16:38:49.108Z,96880.50
2022-10-28T16:41:18.666Z,96885.19
2022-10-28T16:43:45.646Z,96883.47
2022-10-28T16:46:13.980Z,96889.78
2022-10-28T16:48:40.968Z,96904.63
2022-10-28T16:51:18.373Z,96899.00
2022-10-28T16:53:47.560Z,96901.34
2022-10-28T16:56:17.963Z,96898.72
2022-10-28T16:58:44.437Z,96901.94
2022-10-28T17:01:12.059Z,96898.00
2022-10-28T17:03:38.542Z,96886.91
2022-10-28T17:06:05.065Z,96891.06
2022-10-28T17:09:00.830Z,96897.25
2022-10-28T17:11:18.015Z,96896.06
2022-10-28T17:13:44.386Z,96896.88
2022-10-28T17:16:12.937Z,96895.72
2022-10-28T17:18:39.473Z,96888.63
2022-10-28T17:21:06.147Z,96904.97
2022-10-28T17:23:32.835Z,96890.56
2022-10-28T17:26:02.985Z,96899.50
2022-10-28T17:28:29.531Z,96898.00
2022-10-28T17:31:06.980Z,96899.28
2022-10-28T17:33:34.766Z,96903.97
2022-10-28T17:36:02.616Z,96897.44
2022-10-28T17:38:30.014Z,96898.13
2022-10-28T17:40:57.178Z,96893.81
2022-10-28T17:43:23.794Z,96899.13
2022-10-28T17:45:50.893Z,96908.16
2022-10-28T17:48:17.626Z,96905.50
2022-10-28T17:50:45.049Z,96900.34
2022-10-28T17:53:11.801Z,96902.78
2022-10-28T17:55:38.652Z,96895.00
2022-10-28T17:58:05.005Z,96896.38
2022-10-28T18:00:31.334Z,96891.03
2022-10-28T18:02:58.177Z,96890.44
2022-10-28T18:05:24.576Z,96883.72
2022-10-28T18:07:54.886Z,96882.31
2022-10-28T18:10:21.949Z,96889.50
2022-10-28T18:12:51.296Z,96893.41
2022-10-28T18:15:17.652Z,96899.19
2022-10-28T18:17:44.355Z,96906.66
2022-10-28T18:20:11.072Z,96898.84
2022-10-28T18:22:37.809Z,96890.63
2022-10-28T18:25:04.478Z,96894.78
2022-10-28T18:27:31.200Z,96885.78
2022-10-28T18:29:57.888Z,96893.59
2022-10-28T18:32:24.202Z,96890.13
2022-10-28T18:34:50.628Z,96892.38
2022-10-28T18:37:17.135Z,96895.28
2022-10-28T18:39:43.446Z,96902.66
2022-10-28T18:42:12.309Z,96898.78
2022-10-28T18:44:39.265Z,96902.69
2022-10-28T18:47:06.820Z,96892.00
2022-10-28T18:49:33.173Z,96894.88
2022-10-28T18:52:00.143Z,96893.00
2022-10-28T18:54:26.456Z,96900.16
2022-10-28T18:56:56.547Z,96902.38
2022-10-28T18:59:24.030Z,96898.88
2022-10-28T19:01:50.447Z,96906.03
2022-10-28T19:04:16.913Z,96899.22
2022-10-28T19:06:43.632Z,96894.75
2022-10-28T19:09:09.998Z,96902.38
2022-10-28T19:11:36.428Z,96900.16
2022-10-28T19:14:06.353Z,96900.44
2022-10-28T19:16:34.025Z,96905.63
2022-10-28T19:19:02.397Z,96903.38
2022-10-28T19:21:29.690Z,96912.59
2022-10-28T19:23:56.114Z,96909.72
2022-10-28T19:26:22.956Z,96909.06
2022-10-28T19:28:52.797Z,96912.16
2022-10-28T19:31:21.275Z,96915.63
2022-10-28T19:33:49.260Z,96910.09
2022-10-28T19:36:20.085Z,96914.38
2022-10-28T19:38:48.687Z,96909.06
2022-10-28T19:41:17.628Z,96902.28
2022-10-28T19:43:45.290Z,96906.38
2022-10-28T19:46:19.877Z,96912.09
2022-10-28T19:48:50.362Z,96904.28
2022-10-28T19:51:21.985Z,96912.47
2022-10-28T19:53:52.709Z,96916.34
2022-10-28T19:56:20.368Z,96904.47
2022-10-28T19:58:55.144Z,96913.28
2022-10-28T20:01:22.311Z,96916.13
2022-10-28T20:03:53.155Z,96915.72
2022-10-28T20:06:22.322Z,96918.16
2022-10-28T20:08:49.453Z,96918.16
2022-10-28T20:11:24.837Z,96928.16
2022-10-28T20:13:58.852Z,96928.16
2022-10-28T20:16:25.767Z,96928.16
2022-10-28T20:18:54.032Z,96926.56
2022-10-28T20:21:21.922Z,96926.75
2022-10-28T20:26:24.674Z,96928.41
2022-10-28T20:28:51.589Z,96929.59
2022-10-28T20:31:20.210Z,96930.59
2022-10-28T20:33:52.661Z,96929.13
2022-10-28T20:36:35.645Z,96936.03
2022-10-28T20:39:11.025Z,96936.22
2022-10-28T20:41:38.515Z,96929.44
2022-10-28T20:44:06.167Z,96929.03
2022-10-28T20:46:33.523Z,96927.31
2022-10-28T20:49:00.792Z,96927.06
2022-10-28T20:51:29.128Z,96925.03
2022-10-28T20:53:55.866Z,96927.06
2022-10-28T20:56:24.395Z,96931.31
2022-10-28T20:58:51.797Z,96934.84
2022-10-28T21:01:25.809Z,96931.34
2022-10-28T21:03:58.014Z,96920.13
2022-10-28T21:06:25.850Z,96931.56
2022-10-28T21:08:53.485Z,96927.22
2022-10-28T21:11:20.574Z,96930.13
2022-10-28T21:13:56.358Z,96923.91
2022-10-28T21:16:23.746Z,96925.72
2022-10-28T21:18:50.487Z,96918.72
2022-10-28T21:21:19.589Z,96923.31
2022-10-28T21:23:46.210Z,96925.03
2022-10-28T21:26:13.193Z,96916.31
2022-10-28T21:28:43.519Z,96920.81
2022-10-28T21:31:16.169Z,96923.03
2022-10-28T21:33:42.959Z,96928.03
2022-10-28T21:36:12.357Z,96931.53
2022-10-28T21:38:39.143Z,96926.59
2022-10-28T21:41:13.505Z,96927.50
2022-10-28T21:43:42.180Z,96935.38
2022-10-28T21:46:09.101Z,96935.53
2022-10-28T21:48:36.316Z,96940.34
2022-10-28T21:51:08.563Z,96928.84
2022-10-28T21:53:38.894Z,96937.38
2022-10-28T21:56:11.113Z,96939.22
2022-10-28T21:58:41.105Z,96941.38
2022-10-28T22:01:10.987Z,96933.00
2022-10-28T22:03:37.810Z,96936.22
2022-10-28T22:06:04.258Z,96945.16
2022-10-28T22:08:31.210Z,96941.06
2022-10-28T22:10:59.521Z,96937.56
2022-10-28T22:13:26.281Z,96934.41
2022-10-28T22:15:58.162Z,96942.16
2022-10-28T22:18:24.822Z,96934.41
2022-10-28T22:20:51.740Z,96938.19
2022-10-28T22:23:18.066Z,96925.91
2022-10-28T22:25:44.391Z,96925.44
2022-10-28T22:28:11.522Z,96919.25
2022-10-28T22:30:37.847Z,96935.78
2022-10-28T22:33:04.296Z,96921.66
2022-10-28T22:35:30.978Z,96932.63
2022-10-28T22:37:57.619Z,96935.84
2022-10-28T22:40:24.176Z,96928.00
2022-10-28T22:42:51.005Z,96928.03
2022-10-28T22:45:17.310Z,96924.97
2022-10-28T22:47:43.614Z,96929.03
2022-10-28T22:50:10.474Z,96933.16
2022-10-28T22:52:36.795Z,96931.19
2022-10-28T22:55:03.169Z,96934.81
2022-10-28T22:57:29.879Z,96929.88
2022-10-28T22:59:56.195Z,96931.66
2022-10-28T23:02:22.821Z,96935.94
2022-10-28T23:04:49.762Z,96927.53
2022-10-28T23:07:16.071Z,96927.94
2022-10-28T23:09:42.382Z,96930.53
2022-10-28T23:12:09.205Z,96928.81
2022-10-28T23:14:35.516Z,96925.91
2022-10-28T23:17:01.855Z,96933.41
2022-10-28T23:19:28.574Z,96944.88
2022-10-28T23:21:54.914Z,96952.19
2022-10-28T23:24:21.595Z,96950.63
2022-10-28T23:26:47.988Z,96946.16
2022-10-28T23:29:14.943Z,96952.81
2022-10-28T23:31:41.257Z,96946.63
2022-10-28T23:34:07.593Z,96949.22
2022-10-28T23:36:35.245Z,96946.94
2022-10-28T23:39:01.545Z,96944.38
2022-10-28T23:41:27.899Z,96945.78
2022-10-28T23:43:54.708Z,96946.81
2022-10-28T23:46:21.465Z,96949.59
2022-10-28T23:48:48.185Z,96947.53
2022-10-28T23:51:14.509Z,96941.75
2022-10-28T23:53:40.852Z,96944.53
2022-10-28T23:56:07.858Z,96947.63
2022-10-28T23:58:34.186Z,96945.19
